Time;durP1;ratioP1;P1;durP2;ratioP2;P2;SDS_P1;SDS_P2;PMS_P1;PMS_P2;Temp;Humidity;BMP_temperature;BMP_pressure;BME280_temperature;BME280_humidity;BME280_pressure;Samples;Min_cycle;Max_cycle;Signal;HPM_P1;HPM_P2
2021/01/01 00:01:10;;;;;;;;;;;;;;;9.64;41.59;100158.41;4912591;29;20152;-73
2021/01/01 00:03:37;;;;;;;;;;;;;;;9.66;41.38;100145.16;4918438;29;19935;-73
2021/01/01 00:06:09;;;;;;;;;;;;;;;9.67;41.48;100159.22;4919083;29;20357;-73
2021/01/01 00:08:36;;;;;;;;;;;;;;;9.66;41.57;100150.44;4921281;29;19962;-72
2021/01/01 00:11:03;;;;;;;;;;;;;;;9.66;41.90;100146.94;4922655;29;19934;-73
2021/01/01 00:13:30;;;;;;;;;;;;;;;9.69;41.21;100154.75;4901273;29;19951;-73
2021/01/01 00:15:57;;;;;;;;;;;;;;;9.58;41.98;100150.69;4910307;29;19927;-72
2021/01/01 00:18:24;;;;;;;;;;;;;;;9.39;43.96;100155.69;4903027;29;19982;-73
2021/01/01 00:20:51;;;;;;;;;;;;;;;9.32;44.38;100148.03;4904102;29;19927;-72
2021/01/01 00:23:19;;;;;;;;;;;;;;;9.29;45.03;100151.63;4918141;29;19999;-72
2021/01/01 00:25:46;;;;;;;;;;;;;;;9.40;44.94;100160.06;4923436;29;19927;-73
2021/01/01 00:28:13;;;;;;;;;;;;;;;9.48;43.77;100157.16;4891971;29;20278;-73
2021/01/01 00:30:39;;;;;;;;;;;;;;;9.53;43.28;100160.53;4917653;29;20928;-73
2021/01/01 00:33:07;;;;;;;;;;;;;;;9.54;43.09;100159.63;4922013;29;19992;-73
2021/01/01 00:35:35;;;;;;;;;;;;;;;9.53;42.06;100163.16;4904246;29;19942;-72
2021/01/01 00:38:01;;;;;;;;;;;;;;;9.57;42.30;100158.66;4921348;29;19958;-72
2021/01/01 00:40:28;;;;;;;;;;;;;;;9.58;41.72;100168.31;4904462;29;19938;-73
2021/01/01 00:42:55;;;;;;;;;;;;;;;9.56;41.70;100160.44;4914888;29;19934;-73
2021/01/01 00:45:22;;;;;;;;;;;;;;;9.60;41.63;100158.53;4920635;29;20436;-73
2021/01/01 00:47:49;;;;;;;;;;;;;;;9.59;41.60;100156.84;4905709;29;19935;-73
2021/01/01 00:50:17;;;;;;;;;;;;;;;9.60;41.24;100153.25;4923087;29;19931;-72
2021/01/01 00:52:44;;;;;;;;;;;;;;;9.61;40.84;100155.00;4922423;29;19931;-72
2021/01/01 00:55:11;;;;;;;;;;;;;;;9.59;41.20;100156.84;4918570;29;19942;-73
2021/01/01 00:57:38;;;;;;;;;;;;;;;9.61;41.45;100155.88;4899712;29;20124;-73
2021/01/01 01:00:06;;;;;;;;;;;;;;;9.61;41.18;100155.88;4900863;29;19931;-73
2021/01/01 01:02:34;;;;;;;;;;;;;;;9.60;41.08;100159.41;4915066;29;19927;-73
2021/01/01 01:05:00;;;;;;;;;;;;;;;9.62;40.76;100149.66;4904160;29;19927;-73
2021/01/01 01:07:29;;;;;;;;;;;;;;;9.61;41.40;100141.78;4922511;29;19999;-72
2021/01/01 01:09:56;;;;;;;;;;;;;;;9.59;41.15;100151.56;4919738;29;20480;-72
2021/01/01 01:12:23;;;;;;;;;;;;;;;9.60;40.89;100153.25;4916940;29;19999;-72
2021/01/01 01:14:50;;;;;;;;;;;;;;;9.57;41.33;100158.66;4918133;29;20007;-73
2021/01/01 01:17:17;;;;;;;;;;;;;;;9.39;42.51;100160.09;4919562;29;19946;-72
2021/01/01 01:19:44;;;;;;;;;;;;;;;9.25;44.00;100156.13;4921024;29;19951;-73
2021/01/01 01:22:10;;;;;;;;;;;;;;;9.21;44.35;100161.56;4915525;29;19931;-72
2021/01/01 01:24:38;;;;;;;;;;;;;;;9.25;44.95;100157.91;4912311;29;21011;-73
2021/01/01 01:27:05;;;;;;;;;;;;;;;9.37;43.98;100161.94;4916234;29;19946;-73
2021/01/01 01:29:32;;;;;;;;;;;;;;;9.43;42.60;100156.47;4921491;29;19938;-72
2021/01/01 01:31:59;;;;;;;;;;;;;;;9.44;42.58;100159.06;4917948;29;19937;-73
2021/01/01 01:34:26;;;;;;;;;;;;;;;9.47;42.32;100169.50;4916430;29;19927;-73
2021/01/01 01:36:53;;;;;;;;;;;;;;;9.49;41.92;100161.53;4917140;29;19927;-73
2021/01/01 01:39:19;;;;;;;;;;;;;;;9.51;41.53;100164.13;4911182;29;19938;-73
2021/01/01 01:41:47;;;;;;;;;;;;;;;9.50;41.22;100168.56;4920254;29;19981;-73
2021/01/01 01:44:14;;;;;;;;;;;;;;;9.52;41.11;100163.22;4920939;29;19982;-73
2021/01/01 01:46:41;;;;;;;;;;;;;;;9.51;41.22;100166.75;4918995;29;19970;-72
2021/01/01 01:49:10;;;;;;;;;;;;;;;9.49;41.42;100165.97;4916257;29;19941;-72
2021/01/01 01:51:37;;;;;;;;;;;;;;;9.49;41.51;100166.81;4916712;29;19966;-73
2021/01/01 01:54:05;;;;;;;;;;;;;;;9.51;40.98;100172.94;4914702;29;19934;-72
2021/01/01 01:56:32;;;;;;;;;;;;;;;9.48;41.64;100170.38;4920063;29;19928;-72
2021/01/01 01:59:01;;;;;;;;;;;;;;;9.52;41.13;100166.75;4903229;29;19956;-73
2021/01/01 02:01:28;;;;;;;;;;;;;;;9.52;41.08;100161.47;4921351;29;19975;-72
2021/01/01 02:03:55;;;;;;;;;;;;;;;9.50;40.84;100165.91;4919147;29;19937;-73
2021/01/01 02:06:21;;;;;;;;;;;;;;;9.50;40.81;100171.19;4913572;29;20008;-72
2021/01/01 02:08:50;;;;;;;;;;;;;;;9.51;40.91;100170.28;4896707;29;20002;-72
2021/01/01 02:11:17;;;;;;;;;;;;;;;9.51;41.14;100174.69;4921707;29;19932;-72
2021/01/01 02:13:46;;;;;;;;;;;;;;;9.52;40.88;100173.78;4919313;29;19967;-73
2021/01/01 02:16:15;;;;;;;;;;;;;;;9.40;41.96;100173.28;4921263;29;19995;-73
2021/01/01 02:18:45;;;;;;;;;;;;;;;9.20;43.15;100170.38;4915977;29;20444;-73
2021/01/01 02:21:13;;;;;;;;;;;;;;;9.13;44.31;100170.56;4915197;29;19975;-72
2021/01/01 02:23:41;;;;;;;;;;;;;;;9.12;44.68;100167.97;4898905;29;19931;-72
2021/01/01 02:26:08;;;;;;;;;;;;;;;9.21;44.16;100164.19;4918763;29;19927;-72
2021/01/01 02:28:35;;;;;;;;;;;;;;;9.30;43.11;100170.03;4914727;29;19931;-73
2021/01/01 02:31:02;;;;;;;;;;;;;;;9.35;42.53;100167.28;4921752;29;19943;-73
2021/01/01 02:33:29;;;;;;;;;;;;;;;9.40;41.64;100162.72;4903342;29;19970;-73
2021/01/01 02:35:56;;;;;;;;;;;;;;;9.41;41.74;100166.22;4897563;29;20302;-72
2021/01/01 02:38:23;;;;;;;;;;;;;;;9.41;40.94;100167.06;4907045;29;20525;-73
2021/01/01 02:40:51;;;;;;;;;;;;;;;9.40;40.99;100164.47;4899382;29;19934;-73
2021/01/01 02:43:18;;;;;;;;;;;;;;;9.42;40.92;100155.59;4921332;29;19976;-72
2021/01/01 02:45:46;;;;;;;;;;;;;;;9.42;41.07;100165.31;4923408;29;20664;-73
2021/01/01 02:48:13;;;;;;;;;;;;;;;9.41;40.54;100156.50;4913648;29;19967;-72
2021/01/01 02:50:47;;;;;;;;;;;;;;;9.38;40.89;100166.31;4918115;29;19942;-73
2021/01/01 02:53:33;;;;;;;;;;;;;;;9.41;40.54;100164.41;4906655;29;20445;-72
2021/01/01 02:56:00;;;;;;;;;;;;;;;9.41;40.78;100161.78;4925672;29;19971;-73
2021/01/01 02:58:27;;;;;;;;;;;;;;;9.39;40.69;100160.97;4921617;29;20022;-73
2021/01/01 03:00:54;;;;;;;;;;;;;;;9.43;41.11;100167.88;4919157;29;20388;-73
2021/01/01 03:03:21;;;;;;;;;;;;;;;9.38;40.73;100167.16;4919587;29;19927;-73
2021/01/01 03:05:48;;;;;;;;;;;;;;;9.39;40.69;100160.97;4902417;29;19939;-73
2021/01/01 03:08:15;;;;;;;;;;;;;;;9.38;39.93;100163.69;4922274;29;19939;-73
2021/01/01 03:10:41;;;;;;;;;;;;;;;9.40;40.27;100165.34;4922198;29;19927;-73
2021/01/01 03:13:09;;;;;;;;;;;;;;;9.40;40.60;100157.44;4923471;29;19934;-73
2021/01/01 03:15:36;;;;;;;;;;;;;;;9.35;41.04;100158.47;4925250;29;19931;-73
2021/01/01 03:18:03;;;;;;;;;;;;;;;9.13;42.72;100161.78;4920446;29;20389;-73
2021/01/01 03:20:30;;;;;;;;;;;;;;;9.04;43.54;100162.94;4918637;29;19931;-72
2021/01/01 03:22:57;;;;;;;;;;;;;;;9.00;44.34;100158.66;4903056;29;19963;-73
2021/01/01 03:25:24;;;;;;;;;;;;;;;9.09;44.37;100160.16;4920597;29;19931;-73
2021/01/01 03:27:51;;;;;;;;;;;;;;;9.19;43.50;100158.09;4906155;29;20884;-73
2021/01/01 03:30:23;;;;;;;;;;;;;;;9.22;43.05;100158.88;4902417;29;19931;-74
2021/01/01 03:32:50;;;;;;;;;;;;;;;9.26;42.11;100159.66;4920988;29;19937;-73
2021/01/01 03:35:17;;;;;;;;;;;;;;;9.27;41.55;100156.06;4918050;29;19942;-72
2021/01/01 03:37:44;;;;;;;;;;;;;;;9.29;41.76;100155.13;4922340;29;19931;-73
2021/01/01 03:40:11;;;;;;;;;;;;;;;9.28;41.45;100150.78;4922278;29;19938;-73
2021/01/01 03:42:37;;;;;;;;;;;;;;;9.26;40.98;100151.72;4908066;29;19998;-73
2021/01/01 03:45:10;;;;;;;;;;;;;;;9.29;40.56;100156.91;4914830;29;20803;-73
2021/01/01 03:47:38;;;;;;;;;;;;;;;9.28;40.95;100153.41;4917671;29;20329;-73
2021/01/01 03:50:05;;;;;;;;;;;;;;;9.29;40.55;100159.53;4923708;29;20187;-73
2021/01/01 03:52:32;;;;;;;;;;;;;;;9.30;40.29;100158.63;4905553;29;20021;-73
2021/01/01 03:54:59;;;;;;;;;;;;;;;9.28;40.93;100155.16;4918127;29;19927;-73
2021/01/01 03:57:27;;;;;;;;;;;;;;;9.28;40.97;100157.81;4919852;29;19991;-74
2021/01/01 03:59:54;;;;;;;;;;;;;;;9.27;39.78;100156.97;4918319;29;19956;-73
2021/01/01 04:02:21;;;;;;;;;;;;;;;9.28;40.12;100160.44;4922287;29;19965;-73
2021/01/01 04:04:49;;;;;;;;;;;;;;;9.27;40.17;100164.00;4918350;29;19931;-73
2021/01/01 04:07:16;;;;;;;;;;;;;;;9.27;40.46;100162.22;4923467;29;19941;-73
2021/01/01 04:09:43;;;;;;;;;;;;;;;9.29;40.52;100160.38;4922862;29;19947;-73
2021/01/01 04:12:10;;;;;;;;;;;;;;;9.29;40.11;100157.75;4919310;29;19997;-73
2021/01/01 04:14:37;;;;;;;;;;;;;;;9.29;40.27;100156.91;4914858;29;20654;-73
2021/01/01 04:17:04;;;;;;;;;;;;;;;9.13;41.45;100157.38;4922217;29;20085;-73
2021/01/01 04:19:31;;;;;;;;;;;;;;;8.97;42.66;100158.78;4922073;29;19935;-73
2021/01/01 04:21:59;;;;;;;;;;;;;;;8.92;43.59;100158.03;4905224;29;19931;-73
2021/01/01 04:24:26;;;;;;;;;;;;;;;8.96;44.41;100154.41;4924543;29;19931;-72
2021/01/01 04:26:54;;;;;;;;;;;;;;;9.04;43.11;100160.28;4903659;29;19971;-73
2021/01/01 04:29:20;;;;;;;;;;;;;;;9.10;42.39;100160.13;4917952;29;19935;-74
2021/01/01 04:31:47;;;;;;;;;;;;;;;9.15;42.31;100154.69;4922259;29;19931;-74
2021/01/01 04:34:14;;;;;;;;;;;;;;;9.17;41.65;100160.78;4918076;29;19927;-73
2021/01/01 04:36:41;;;;;;;;;;;;;;;9.18;41.17;100162.53;4908305;29;19951;-73
2021/01/01 04:39:09;;;;;;;;;;;;;;;9.20;40.50;100159.84;4904234;29;20018;-73
2021/01/01 04:41:36;;;;;;;;;;;;;;;9.23;41.04;100165.00;4903569;29;20432;-73
2021/01/01 04:44:04;;;;;;;;;;;;;;;9.20;40.39;100163.31;4907401;29;19927;-73
2021/01/01 04:46:31;;;;;;;;;;;;;;;9.23;40.21;100157.97;4923113;29;19934;-72
2021/01/01 04:49:00;;;;;;;;;;;;;;;9.25;40.05;100163.19;4922328;29;19931;-74
2021/01/01 04:51:27;;;;;;;;;;;;;;;9.23;39.91;100167.66;4919711;29;19964;-73
2021/01/01 04:53:55;;;;;;;;;;;;;;;9.22;39.68;100161.50;4918178;29;19941;-74
2021/01/01 04:56:23;;;;;;;;;;;;;;;9.23;40.17;100159.72;4917654;29;19930;-74
2021/01/01 04:58:50;;;;;;;;;;;;;;;9.22;40.19;100158.88;4921924;29;19938;-73
2021/01/01 05:01:17;;;;;;;;;;;;;;;9.23;40.26;100165.00;4917860;29;19959;-73
2021/01/01 05:03:45;;;;;;;;;;;;;;;9.23;39.78;100165.00;4918652;29;20372;-74
2021/01/01 05:06:11;;;;;;;;;;;;;;;9.22;39.88;100165.91;4920673;29;19927;-73
2021/01/01 05:08:38;;;;;;;;;;;;;;;9.22;40.16;100161.50;4916104;29;19935;-74
2021/01/01 05:11:06;;;;;;;;;;;;;;;9.21;39.86;100165.06;4914569;29;19936;-73
2021/01/01 05:13:34;;;;;;;;;;;;;;;9.23;39.83;100165.00;4922720;29;19931;-73
2021/01/01 05:16:01;;;;;;;;;;;;;;;9.13;41.13;100162.66;4919452;29;19935;-73
2021/01/01 05:18:29;;;;;;;;;;;;;;;8.93;42.26;100159.75;4923371;29;19927;-74
2021/01/01 05:20:56;;;;;;;;;;;;;;;8.85;43.08;100162.63;4919543;29;19938;-73
2021/01/01 05:23:24;;;;;;;;;;;;;;;8.83;43.55;100158.31;4914634;29;19975;-73
2021/01/01 05:26:08;;;;;;;;;;;;;;;8.94;43.36;100161.47;4918707;29;19935;-73
2021/01/01 05:28:45;;;;;;;;;;;;;;;9.02;42.25;100161.25;4921717;29;19927;-73
2021/01/01 05:31:12;;;;;;;;;;;;;;;9.07;42.21;100165.47;4920233;29;19931;-73
2021/01/01 05:33:40;;;;;;;;;;;;;;;9.10;41.44;100168.03;4920538;29;20300;-73
2021/01/01 05:36:08;;;;;;;;;;;;;;;9.11;40.88;100167.13;4920933;29;19931;-73
2021/01/01 05:38:36;;;;;;;;;;;;;;;9.11;40.76;100174.16;4911175;29;19926;-73
2021/01/01 05:41:03;;;;;;;;;;;;;;;9.14;40.37;100171.44;4917310;29;19934;-73
2021/01/01 05:43:31;;;;;;;;;;;;;;;9.16;40.26;100174.03;4916501;29;19934;-73
2021/01/01 05:46:08;;;;;;;;;;;;;;;9.17;40.33;100173.13;4903887;29;19932;-73
2021/01/01 05:48:35;;;;;;;;;;;;;;;9.16;40.24;100166.97;4922561;29;20328;-73
2021/01/01 05:51:05;;;;;;;;;;;;;;;9.22;39.90;100176.47;4914754;29;19932;-73
2021/01/01 05:53:33;;;;;;;;;;;;;;;9.24;40.01;100170.22;4911151;29;19955;-72
2021/01/01 05:56:06;;;;;;;;;;;;;;;9.29;39.40;100176.22;4922085;29;19931;-73
2021/01/01 05:58:33;;;;;;;;;;;;;;;9.30;39.57;100172.69;4924684;29;19942;-73
2021/01/01 06:01:01;;;;;;;;;;;;;;;9.33;39.74;100177.00;4916137;29;19942;-73
2021/01/01 06:03:32;;;;;;;;;;;;;;;9.39;39.10;100174.19;4918886;29;19962;-73
2021/01/01 06:06:04;;;;;;;;;;;;;;;9.43;39.13;100175.81;4917329;29;20299;-73
2021/01/01 06:08:32;;;;;;;;;;;;;;;9.46;39.44;100182.78;4913064;29;19927;-73
2021/01/01 06:10:59;;;;;;;;;;;;;;;9.51;39.22;100180.84;4903363;29;19937;-73
2021/01/01 06:13:30;;;;;;;;;;;;;;;9.52;39.40;100177.31;4921496;29;20315;-73
2021/01/01 06:15:58;;;;;;;;;;;;;;;9.47;39.92;100180.06;4921452;29;19935;-73
2021/01/01 06:18:25;;;;;;;;;;;;;;;9.28;41.51;100177.16;4920808;29;19994;-73
2021/01/01 06:21:01;;;;;;;;;;;;;;;9.21;42.72;100185.31;4913573;29;19990;-73
2021/01/01 06:23:31;;;;;;;;;;;;;;;9.19;43.09;100185.34;4920248;29;20030;-73
2021/01/01 06:25:58;;;;;;;;;;;;;;;9.34;42.89;100185.78;4924787;29;19941;-72
2021/01/01 06:28:26;;;;;;;;;;;;;;;9.41;41.42;100189.97;4908645;29;19966;-73
2021/01/01 06:30:54;;;;;;;;;;;;;;;9.45;41.35;100189.81;4925758;29;19928;-73
2021/01/01 06:33:21;;;;;;;;;;;;;;;9.50;40.49;100192.31;4917211;29;19960;-73
2021/01/01 06:35:49;;;;;;;;;;;;;;;9.57;40.74;100195.63;4919133;29;19927;-73
2021/01/01 06:38:31;;;;;;;;;;;;;;;9.57;40.46;100193.88;4920516;29;19935;-73
2021/01/01 06:40:58;;;;;;;;;;;;;;;9.59;40.13;100194.66;4924465;29;19927;-73
2021/01/01 06:43:46;;;;;;;;;;;;;;;9.57;39.90;100196.50;4906909;29;19935;-73
2021/01/01 06:46:13;;;;;;;;;;;;;;;9.65;39.79;100204.16;4916005;29;19999;-73
2021/01/01 06:48:40;;;;;;;;;;;;;;;9.65;39.95;100196.22;4903298;29;19931;-73
2021/01/01 06:51:13;;;;;;;;;;;;;;;9.68;39.71;100204.06;4898005;29;19971;-73
2021/01/01 06:53:41;;;;;;;;;;;;;;;9.67;39.50;100204.13;4896563;29;19931;-73
2021/01/01 06:56:09;;;;;;;;;;;;;;;9.66;39.30;100205.03;4899930;29;19934;-73
2021/01/01 06:58:36;;;;;;;;;;;;;;;9.69;39.42;100204.94;4900238;29;19974;-73
2021/01/01 07:01:04;;;;;;;;;;;;;;;9.70;39.15;100204.88;4894551;29;19927;-72
2021/01/01 07:03:32;;;;;;;;;;;;;;;9.70;39.47;100212.78;4887111;29;20419;-73
2021/01/01 07:06:13;;;;;;;;;;;;;;;9.69;39.11;100213.72;4887957;29;19927;-73
2021/01/01 07:08:44;;;;;;;;;;;;;;;9.71;39.35;100216.31;4901849;29;19937;-73
2021/01/01 07:11:25;;;;;;;;;;;;;;;9.73;38.88;100214.47;4889181;29;20488;-73
2021/01/01 07:13:54;;;;;;;;;;;;;;;9.72;39.56;100223.34;4904595;29;20030;-73
2021/01/01 07:16:22;;;;;;;;;;;;;;;9.59;40.57;100218.44;4896631;29;19933;-74
2021/01/01 07:18:49;;;;;;;;;;;;;;;9.43;41.58;100222.47;4897193;29;19927;-73
2021/01/01 07:21:18;;;;;;;;;;;;;;;9.38;42.70;100227.03;4903320;29;20401;-73
2021/01/01 07:23:45;;;;;;;;;;;;;;;9.34;43.74;100226.25;4900250;29;20092;-73
2021/01/01 07:26:13;;;;;;;;;;;;;;;9.48;42.38;100228.44;4897321;29;19935;-73
2021/01/01 07:28:41;;;;;;;;;;;;;;;9.53;41.34;100229.16;4887198;29;19934;-72
2021/01/01 07:31:12;;;;;;;;;;;;;;;9.59;40.97;100229.00;4890208;29;19938;-73
2021/01/01 07:33:39;;;;;;;;;;;;;;;9.60;40.68;100233.38;4884957;29;19935;-73
2021/01/01 07:36:07;;;;;;;;;;;;;;;9.68;41.11;100233.13;4872352;29;19936;-72
2021/01/01 07:38:35;;;;;;;;;;;;;;;9.66;40.57;100237.56;4893967;29;19932;-72
2021/01/01 07:41:03;;;;;;;;;;;;;;;9.66;40.53;100242.84;4889304;29;19931;-72
2021/01/01 07:43:30;;;;;;;;;;;;;;;9.67;40.47;100241.97;4886134;29;19935;-72
2021/01/01 07:45:58;;;;;;;;;;;;;;;9.71;40.55;100245.38;4883812;29;20022;-72
2021/01/01 07:48:27;;;;;;;;;;;;;;;9.70;40.17;100244.50;4889955;29;20905;-72
2021/01/01 07:50:57;;;;;;;;;;;;;;;9.70;39.77;100241.00;4905518;29;19935;-72
2021/01/01 07:53:24;;;;;;;;;;;;;;;9.68;40.04;100240.16;4888740;29;19986;-72
2021/01/01 07:55:51;;;;;;;;;;;;;;;9.70;40.15;100241.84;4892165;29;19931;-72
2021/01/01 07:58:18;;;;;;;;;;;;;;;9.71;39.59;100248.00;4904556;29;19931;-72
2021/01/01 08:00:47;;;;;;;;;;;;;;;9.72;39.65;100247.97;4899911;29;20410;-72
2021/01/01 08:03:15;;;;;;;;;;;;;;;9.70;39.67;100246.28;4905932;29;19931;-74
2021/01/01 08:05:44;;;;;;;;;;;;;;;9.70;39.22;100246.28;4907516;29;19965;-73
2021/01/01 08:08:12;;;;;;;;;;;;;;;9.73;39.40;100244.41;4907306;29;19983;-72
2021/01/01 08:10:39;;;;;;;;;;;;;;;9.76;38.95;100244.31;4905388;29;20472;-72
2021/01/01 08:13:12;;;;;;;;;;;;;;;9.75;38.91;100247.00;4885704;29;19935;-72
2021/01/01 08:15:39;;;;;;;;;;;;;;;9.72;39.85;100250.59;4886107;29;19957;-72
2021/01/01 08:18:08;;;;;;;;;;;;;;;9.54;41.26;100256.47;4907551;29;20091;-73
2021/01/01 08:20:36;;;;;;;;;;;;;;;9.44;42.30;100251.47;4902984;29;19935;-72
2021/01/01 08:23:05;;;;;;;;;;;;;;;9.44;42.97;100256.75;4905292;29;19938;-73
2021/01/01 08:25:32;;;;;;;;;;;;;;;9.53;42.60;100255.56;4909711;29;20210;-72
2021/01/01 08:27:59;;;;;;;;;;;;;;;9.61;41.39;100253.59;4916169;29;19938;-72
2021/01/01 08:30:27;;;;;;;;;;;;;;;9.64;40.64;100257.91;4914197;29;19935;-72
2021/01/01 08:32:54;;;;;;;;;;;;;;;9.66;40.19;100256.06;4922030;29;19934;-72
2021/01/01 08:35:21;;;;;;;;;;;;;;;9.68;40.29;100256.91;4906312;29;20392;-73
2021/01/01 08:37:48;;;;;;;;;;;;;;;9.73;40.03;100259.38;4906598;29;19963;-72
2021/01/01 08:40:17;;;;;;;;;;;;;;;9.75;39.99;100261.06;4903270;29;19935;-72
2021/01/01 08:42:45;;;;;;;;;;;;;;;9.78;39.56;100260.09;4889876;29;19939;-72
2021/01/01 08:45:12;;;;;;;;;;;;;;;9.78;39.31;100254.81;4897143;29;19934;-72
2021/01/01 08:47:41;;;;;;;;;;;;;;;9.80;39.45;100264.41;4905690;29;19935;-72
2021/01/01 08:50:18;;;;;;;;;;;;;;;9.82;39.27;100261.72;4906902;29;19941;-72
2021/01/01 08:52:47;;;;;;;;;;;;;;;9.83;39.02;100265.25;4904949;29;19935;-72
2021/01/01 08:55:14;;;;;;;;;;;;;;;9.83;38.89;100271.38;4903431;29;19935;-72
2021/01/01 08:57:42;;;;;;;;;;;;;;;9.87;38.65;100269.50;4901018;29;19935;-72
2021/01/01 09:00:10;;;;;;;;;;;;;;;9.92;38.63;100272.88;4903628;29;19956;-72
2021/01/01 09:02:37;;;;;;;;;;;;;;;9.96;38.21;100271.84;4905334;29;19935;-72
2021/01/01 09:05:05;;;;;;;;;;;;;;;9.98;38.26;100275.34;4902639;29;19942;-73
2021/01/01 09:07:33;;;;;;;;;;;;;;;10.02;38.39;100274.31;4905613;29;19939;-72
2021/01/01 09:10:16;;;;;;;;;;;;;;;10.04;38.21;100268.97;4901266;29;19938;-72
2021/01/01 09:12:45;;;;;;;;;;;;;;;10.07;37.97;100279.44;4899612;29;19959;-73
2021/01/01 09:15:12;;;;;;;;;;;;;;;10.07;38.48;100277.66;4888231;29;20551;-73
2021/01/01 09:17:39;;;;;;;;;;;;;;;9.85;40.03;100285.41;4904467;29;19955;-73
2021/01/01 09:20:07;;;;;;;;;;;;;;;9.79;40.71;100277.69;4888283;29;19931;-73
2021/01/01 09:22:36;;;;;;;;;;;;;;;9.78;41.99;100281.22;4887357;29;19970;-73
2021/01/01 09:25:19;;;;;;;;;;;;;;;9.85;41.40;100282.78;4902138;29;19942;-73
2021/01/01 09:27:49;;;;;;;;;;;;;;;10.00;40.66;100275.28;4883755;29;19935;-73
2021/01/01 09:30:18;;;;;;;;;;;;;;;10.06;39.74;100278.56;4904818;29;19966;-73
2021/01/01 09:32:45;;;;;;;;;;;;;;;10.12;39.58;100285.44;4908162;29;20053;-73
2021/01/01 09:35:12;;;;;;;;;;;;;;;10.16;38.77;100280.91;4904165;29;19946;-73
2021/01/01 09:37:46;;;;;;;;;;;;;;;10.19;39.03;100288.72;4906731;29;19935;-73
2021/01/01 09:40:14;;;;;;;;;;;;;;;10.24;38.40;100292.09;4900470;29;19942;-73
2021/01/01 09:42:41;;;;;;;;;;;;;;;10.27;38.33;100284.06;4900626;29;19931;-74
2021/01/01 09:45:10;;;;;;;;;;;;;;;10.28;38.37;100294.59;4890388;29;19955;-73
2021/01/01 09:47:37;;;;;;;;;;;;;;;10.28;38.28;100293.72;4888748;29;20081;-73
2021/01/01 09:50:08;;;;;;;;;;;;;;;10.29;38.34;100296.28;4898405;29;20460;-73
2021/01/01 09:52:35;;;;;;;;;;;;;;;10.32;37.92;100295.34;4900724;29;19941;-73
2021/01/01 09:55:02;;;;;;;;;;;;;;;10.36;37.51;100285.56;4900359;29;19935;-72
2021/01/01 09:57:30;;;;;;;;;;;;;;;10.38;37.56;100291.69;4906621;29;19931;-73
2021/01/01 09:59:57;;;;;;;;;;;;;;;10.42;37.87;100290.66;4889602;29;19935;-73
2021/01/01 10:02:25;;;;;;;;;;;;;;;10.44;37.88;100294.09;4903063;29;19935;-74
2021/01/01 10:04:52;;;;;;;;;;;;;;;10.43;37.37;100287.94;4903505;29;19946;-73
2021/01/01 10:07:19;;;;;;;;;;;;;;;10.44;37.51;100288.81;4902703;29;19958;-72
2021/01/01 10:09:48;;;;;;;;;;;;;;;10.43;37.67;100287.94;4884355;29;19941;-74
2021/01/01 10:12:18;;;;;;;;;;;;;;;10.44;37.64;100291.44;4897068;29;19935;-74
2021/01/01 10:14:45;;;;;;;;;;;;;;;10.44;37.61;100294.97;4907684;29;19930;-73
2021/01/01 10:17:12;;;;;;;;;;;;;;;10.22;39.04;100288.66;4903826;29;20002;-73
2021/01/01 10:19:41;;;;;;;;;;;;;;;10.16;40.47;100287.06;4905422;29;20034;-73
2021/01/01 10:22:08;;;;;;;;;;;;;;;10.14;40.88;100287.09;4901828;29;19935;-73
2021/01/01 10:24:35;;;;;;;;;;;;;;;10.20;41.33;100291.31;4899754;29;20165;-73
2021/01/01 10:27:02;;;;;;;;;;;;;;;10.33;40.53;100289.13;4905357;29;19966;-73
2021/01/01 10:29:29;;;;;;;;;;;;;;;10.42;39.38;100286.22;4905172;29;20070;-79
2021/01/01 10:32:01;;;;;;;;;;;;;;;10.49;38.95;100288.66;4888238;29;19939;-74
2021/01/01 10:34:28;;;;;;;;;;;;;;;10.53;38.26;100282.34;4904515;29;20029;-74
2021/01/01 10:40:18;;;;;;;;;;;;;;;10.54;38.14;100287.56;4886905;29;19931;-75
2021/01/01 10:42:52;;;;;;;;;;;;;;;10.53;37.85;100285.88;4905432;29;19935;-79
2021/01/01 10:45:42;;;;;;;;;;;;;;;10.58;37.72;100283.91;4887940;29;19942;-75
2021/01/01 10:48:09;;;;;;;;;;;;;;;10.62;37.48;100284.66;4890631;29;19955;-75
2021/01/01 10:50:36;;;;;;;;;;;;;;;10.63;37.68;100283.75;4901335;29;20346;-75
2021/01/01 10:53:04;;;;;;;;;;;;;;;10.67;37.56;100287.16;4898887;29;19935;-76
2021/01/01 10:55:34;;;;;;;;;;;;;;;10.67;37.55;100289.81;4904880;29;19935;-78
2021/01/01 10:58:01;;;;;;;;;;;;;;;10.66;37.28;100286.28;4889419;29;19939;-76
2021/01/01 11:00:28;;;;;;;;;;;;;;;10.64;37.11;100290.78;4906129;29;19966;-77
2021/01/01 11:02:55;;;;;;;;;;;;;;;10.60;37.48;100281.22;4907140;29;20975;-77
2021/01/01 11:05:22;;;;;;;;;;;;;;;10.59;37.13;100284.78;4887188;29;19931;-76
2021/01/01 11:07:49;;;;;;;;;;;;;;;10.58;37.14;100283.91;4908143;29;19941;-75
2021/01/01 11:10:17;;;;;;;;;;;;;;;10.92;46.85;100276.56;4909146;29;20405;-76
2021/01/01 11:12:44;;;;;;;;;;;;;;;11.49;50.89;100277.09;4908153;29;20631;-75
2021/01/01 12:22:01;;;;;;;;;;;;;;;10.38;43.37;100262.59;4881046;29;19935;-76
2021/01/01 12:24:46;;;;;;;;;;;;;;;10.39;43.68;100257.25;4906908;29;19935;-74
2021/01/01 12:27:17;;;;;;;;;;;;;;;10.54;42.40;100258.47;4908181;29;19935;-74
2021/01/01 12:29:44;;;;;;;;;;;;;;;10.60;42.04;100252.13;4904678;29;20679;-74
2021/01/01 12:32:13;;;;;;;;;;;;;;;10.68;41.42;100252.72;4906860;29;19935;-75
2021/01/01 12:34:40;;;;;;;;;;;;;;;10.74;40.65;100259.56;4894178;29;19931;-76
2021/01/01 12:37:07;;;;;;;;;;;;;;;10.76;40.52;100258.59;4909236;29;19931;-75
2021/01/01 12:39:34;;;;;;;;;;;;;;;10.79;40.32;100247.03;4907262;29;19991;-76
2021/01/01 12:42:02;;;;;;;;;;;;;;;10.83;39.95;100253.06;4910515;29;19927;-77
2021/01/01 12:44:29;;;;;;;;;;;;;;;10.80;39.60;100259.34;4908792;29;19935;-78
2021/01/01 12:46:56;;;;;;;;;;;;;;;10.79;39.56;100254.97;4887177;29;19954;-78
2021/01/01 12:49:25;;;;;;;;;;;;;;;10.82;39.37;100252.22;4905849;29;22115;-77
2021/01/01 12:51:52;;;;;;;;;;;;;;;10.84;39.08;100252.16;4900295;29;19935;-78
2021/01/01 12:54:19;;;;;;;;;;;;;;;10.85;39.07;100254.75;4909719;29;20015;-77
2021/01/01 12:56:46;;;;;;;;;;;;;;;10.87;38.76;100259.97;4908948;29;19970;-78
2021/01/01 12:59:13;;;;;;;;;;;;;;;10.85;38.79;100252.09;4902511;29;19931;-77
2021/01/01 13:01:40;;;;;;;;;;;;;;;10.88;38.89;100259.06;4904855;29;19942;-77
2021/01/01 13:04:08;;;;;;;;;;;;;;;10.88;38.66;100246.69;4908906;29;20029;-78
2021/01/01 13:06:35;;;;;;;;;;;;;;;10.90;38.47;100262.50;4909203;29;19934;-77
2021/01/01 13:09:03;;;;;;;;;;;;;;;10.89;38.97;100256.38;4907746;29;19974;-77
2021/01/01 13:11:42;;;;;;;;;;;;;;;10.91;38.32;100253.66;4906429;29;19934;-74
2021/01/01 13:14:09;;;;;;;;;;;;;;;10.90;38.49;100252.81;4900143;29;19928;-75
2021/01/01 13:16:36;;;;;;;;;;;;;;;10.69;39.84;100253.56;4905995;29;20442;-75
2021/01/01 13:19:03;;;;;;;;;;;;;;;10.44;41.71;100268.53;4887201;29;20603;-75
2021/01/01 13:21:31;;;;;;;;;;;;;;;10.33;42.85;100267.13;4907270;29;20018;-75
2021/01/01 13:23:59;;;;;;;;;;;;;;;10.30;43.04;100261.03;4895576;29;19939;-75
2021/01/01 13:26:26;;;;;;;;;;;;;;;10.42;42.46;100264.22;4903063;29;20003;-75
2021/01/01 13:28:54;;;;;;;;;;;;;;;10.48;41.56;100271.06;4902692;29;19938;-74
2021/01/01 13:31:22;;;;;;;;;;;;;;;10.50;41.01;100269.22;4890139;29;20435;-74
2021/01/01 13:33:49;;;;;;;;;;;;;;;10.50;40.81;100272.72;4906694;29;19983;-75
2021/01/01 13:36:17;;;;;;;;;;;;;;;10.50;40.63;100274.53;4907915;29;19939;-75
2021/01/01 13:38:44;;;;;;;;;;;;;;;10.49;40.35;100273.63;4907042;29;19935;-76
2021/01/01 13:41:13;;;;;;;;;;;;;;;10.49;39.80;100271.00;4905017;29;19956;-76
2021/01/01 13:43:40;;;;;;;;;;;;;;;10.48;39.79;100271.06;4898026;29;19942;-76
2021/01/01 13:46:10;;;;;;;;;;;;;;;10.47;39.83;100275.50;4906078;29;19927;-76
2021/01/01 13:48:37;;;;;;;;;;;;;;;10.45;39.41;100272.91;4890445;29;20034;-76
2021/01/01 13:51:04;;;;;;;;;;;;;;;10.44;39.17;100281.75;4904336;29;19975;-76
2021/01/01 13:53:31;;;;;;;;;;;;;;;10.44;39.13;100283.50;4901425;29;19981;-76
2021/01/01 13:55:58;;;;;;;;;;;;;;;10.42;39.33;100280.06;4900950;29;20219;-76
2021/01/01 13:58:26;;;;;;;;;;;;;;;10.41;39.08;100278.34;4901056;29;19935;-76